Terminal Aerodrome Forecast
Issued by NWS

Home | Current Version | Previous Version | Text Only | Print | Product List | Glossary On
Versions: 1 2 3 4 5 6 7 8 9 10 11 12
514
FTUS45 KABQ 231724
TAFFMN
TAF
KFMN 231724Z 2318/2418 31015G24KT P6SM SKC
     FM231900 31027G37KT P6SM SKC
     FM240200 32008KT P6SM SKC
     FM240600 07005KT P6SM SKC=

USA.gov is the U.S. government's official web portal to all federal, state and local government web resources and services.